createdAt,value
2022-11-27T00:03:49.871Z,26.50
2022-11-27T00:06:19.755Z,22.58
2022-11-27T00:08:47.115Z,23.70
2022-11-27T00:11:16.833Z,24.50
2022-11-27T00:13:45.448Z,25.15
2022-11-27T00:16:13.437Z,25.83
2022-11-27T00:18:40.801Z,29.73
2022-11-27T00:21:11.480Z,31.90
2022-11-27T00:23:38.705Z,28.95
2022-11-27T00:26:06.654Z,32.20
2022-11-27T00:28:33.962Z,25.02
2022-11-27T00:31:02.400Z,27.08
2022-11-27T00:33:29.523Z,26.30
2022-11-27T00:35:56.353Z,27.10
2022-11-27T00:38:23.158Z,32.92
2022-11-27T00:40:49.867Z,27.23
2022-11-27T00:43:16.601Z,29.85
2022-11-27T00:45:43.325Z,32.88
2022-11-27T00:48:10.030Z,26.25
2022-11-27T00:50:36.708Z,30.48
2022-11-27T00:53:03.420Z,37.80
2022-11-27T00:55:30.123Z,33.10
2022-11-27T00:57:56.843Z,31.08
2022-11-27T01:00:24.953Z,27.13
2022-11-27T01:02:51.703Z,21.40
2022-11-27T01:05:18.529Z,28.65
2022-11-27T01:07:45.344Z,21.05
2022-11-27T01:10:12.258Z,27.20
2022-11-27T01:12:39.081Z,22.00
2022-11-27T01:15:06.242Z,25.13
2022-11-27T01:17:32.961Z,28.98
2022-11-27T01:19:59.695Z,28.65
2022-11-27T01:22:26.422Z,25.17
2022-11-27T01:24:53.123Z,23.60
2022-11-27T01:27:19.846Z,27.73
2022-11-27T01:29:46.578Z,22.98
2022-11-27T01:32:13.530Z,20.33
2022-11-27T01:34:40.489Z,26.25
2022-11-27T01:37:07.279Z,25.63
2022-11-27T01:39:34.043Z,16.25
2022-11-27T01:42:00.849Z,17.88
2022-11-27T01:44:27.492Z,17.80
2022-11-27T01:47:07.106Z,19.75
2022-11-27T01:49:45.955Z,27.02
2022-11-27T01:52:32.913Z,16.35
2022-11-27T01:55:48.868Z,14.80
2022-11-27T01:58:21.438Z,18.75
2022-11-27T02:00:48.258Z,21.60
2022-11-27T02:03:16.199Z,19.85
2022-11-27T02:05:43.049Z,17.75
2022-11-27T02:08:12.647Z,22.33
2022-11-27T02:10:54.580Z,13.45
2022-11-27T02:13:35.558Z,20.65
2022-11-27T02:16:45.127Z,20.02
2022-11-27T02:19:26.935Z,18.38
2022-11-27T02:22:04.682Z,16.70
2022-11-27T02:24:42.969Z,20.67
2022-11-27T02:27:28.316Z,22.83
2022-11-27T02:29:59.018Z,18.33
2022-11-27T02:32:40.535Z,24.98
2022-11-27T02:35:18.352Z,15.10
2022-11-27T02:38:20.854Z,17.00
2022-11-27T02:40:55.440Z,21.50
2022-11-27T02:43:28.393Z,14.15
2022-11-27T02:45:57.782Z,15.65
2022-11-27T02:48:31.085Z,16.83
2022-11-27T02:50:57.789Z,19.70
2022-11-27T02:53:33.989Z,20.75
2022-11-27T02:56:03.366Z,16.48
2022-11-27T02:58:30.735Z,23.52
2022-11-27T03:00:59.883Z,21.17
2022-11-27T03:03:34.031Z,23.33
2022-11-27T03:06:08.636Z,14.98
2022-11-27T03:09:02.383Z,14.15
2022-11-27T03:11:30.847Z,17.83
2022-11-27T03:14:02.118Z,18.77
2022-11-27T03:16:34.980Z,21.23
2022-11-27T03:19:23.229Z,17.17
2022-11-27T03:21:58.662Z,17.95
2022-11-27T03:24:26.721Z,15.30
2022-11-27T03:26:53.491Z,19.88
2022-11-27T03:29:31.882Z,15.30
2022-11-27T03:31:59.182Z,16.80
2022-11-27T03:34:26.435Z,16.35
2022-11-27T03:36:53.133Z,17.10
2022-11-27T03:39:23.818Z,17.05
2022-11-27T03:41:58.372Z,15.90
2022-11-27T03:44:42.159Z,16.02
2022-11-27T03:47:34.123Z,20.75
2022-11-27T03:50:16.403Z,21.58
2022-11-27T03:52:54.186Z,18.52
2022-11-27T03:55:41.166Z,17.27
2022-11-27T03:58:28.962Z,18.27
2022-11-27T04:00:57.399Z,17.95
2022-11-27T04:03:27.602Z,20.08
2022-11-27T04:05:54.507Z,20.60
2022-11-27T04:08:21.483Z,22.60
2022-11-27T04:10:48.243Z,27.90
2022-11-27T04:13:15.267Z,20.00
2022-11-27T04:15:42.272Z,18.75
2022-11-27T04:18:09.174Z,18.45
2022-11-27T04:20:35.939Z,22.65
2022-11-27T04:23:02.879Z,22.23
2022-11-27T04:25:29.681Z,23.33
2022-11-27T04:27:56.483Z,19.30
2022-11-27T04:30:23.633Z,17.65
2022-11-27T04:32:50.318Z,19.45
2022-11-27T04:35:17.408Z,22.13
2022-11-27T04:37:44.221Z,21.73
2022-11-27T04:40:11.427Z,20.25
2022-11-27T04:42:38.107Z,26.08
2022-11-27T04:45:05.350Z,17.83
2022-11-27T04:47:32.059Z,20.27
2022-11-27T04:49:58.761Z,19.80
2022-11-27T04:52:25.454Z,20.77
2022-11-27T04:54:56.814Z,20.63
2022-11-27T04:57:26.574Z,23.73
2022-11-27T04:59:53.266Z,22.80
2022-11-27T05:02:20.028Z,23.15
2022-11-27T05:04:46.702Z,28.50
2022-11-27T05:07:13.469Z,25.95
2022-11-27T05:09:40.267Z,20.95
2022-11-27T05:12:07.059Z,20.23
2022-11-27T05:14:33.997Z,17.60
2022-11-27T05:17:00.773Z,24.85
2022-11-27T05:19:29.937Z,26.80
2022-11-27T05:21:57.037Z,23.27
2022-11-27T05:24:26.406Z,19.55
2022-11-27T05:26:53.178Z,24.73
2022-11-27T05:29:20.734Z,16.95
2022-11-27T05:31:47.748Z,24.70
2022-11-27T05:34:15.129Z,24.95
2022-11-27T05:36:43.021Z,19.52
2022-11-27T05:39:10.612Z,24.20
2022-11-27T05:41:39.297Z,25.90
2022-11-27T05:44:06.536Z,25.73
2022-11-27T05:46:33.699Z,19.00
2022-11-27T05:49:00.455Z,22.98
2022-11-27T05:51:27.203Z,19.60
2022-11-27T05:53:54.010Z,19.80
2022-11-27T05:56:20.826Z,26.05
2022-11-27T05:58:48.911Z,17.27
2022-11-27T06:01:17.910Z,18.55
2022-11-27T06:03:44.748Z,24.55
2022-11-27T06:06:17.817Z,19.33
2022-11-27T06:08:45.287Z,26.38
2022-11-27T06:11:16.366Z,23.45
2022-11-27T06:13:44.146Z,17.65
2022-11-27T06:16:19.746Z,27.85
2022-11-27T06:18:50.627Z,25.13
2022-11-27T06:21:17.555Z,25.85
2022-11-27T06:23:44.723Z,22.25
2022-11-27T06:26:20.233Z,19.23
2022-11-27T06:28:47.958Z,24.48
2022-11-27T06:31:20.926Z,23.40
2022-11-27T06:33:49.440Z,23.48
2022-11-27T06:36:17.139Z,21.40
2022-11-27T06:38:44.495Z,17.77
2022-11-27T06:41:13.897Z,20.77
2022-11-27T06:43:40.764Z,19.90
2022-11-27T06:46:11.201Z,24.40
2022-11-27T06:48:38.036Z,29.00
2022-11-27T06:51:06.903Z,24.92
2022-11-27T06:53:36.097Z,23.95
2022-11-27T06:56:04.699Z,18.35
2022-11-27T06:58:31.537Z,28.10
2022-11-27T07:00:59.847Z,22.73
2022-11-27T07:03:29.831Z,21.08
2022-11-27T07:06:03.918Z,25.58
2022-11-27T07:08:31.036Z,26.52
2022-11-27T07:11:07.288Z,21.73
2022-11-27T07:13:34.303Z,17.63
2022-11-27T07:16:07.127Z,26.30
2022-11-27T07:18:42.433Z,30.23
2022-11-27T07:21:10.053Z,23.17
2022-11-27T07:23:37.379Z,21.58
2022-11-27T07:26:12.691Z,20.23
2022-11-27T07:28:40.050Z,21.42
2022-11-27T07:31:06.862Z,20.08
2022-11-27T07:33:33.687Z,24.73
2022-11-27T07:36:05.585Z,18.40
2022-11-27T07:38:32.851Z,23.25
2022-11-27T07:41:01.814Z,21.23
2022-11-27T07:43:29.199Z,17.08
2022-11-27T07:45:56.731Z,18.00
2022-11-27T07:48:23.720Z,19.42
2022-11-27T07:50:50.680Z,23.00
2022-11-27T07:53:17.495Z,27.65
2022-11-27T07:55:44.150Z,15.45
2022-11-27T07:58:10.961Z,26.65
2022-11-27T08:00:38.770Z,19.75
2022-11-27T08:03:05.551Z,35.53
2022-11-27T08:05:35.499Z,18.55
2022-11-27T08:08:04.225Z,18.35
2022-11-27T08:10:34.694Z,17.92
2022-11-27T08:13:01.418Z,17.83
2022-11-27T08:15:28.079Z,20.65
2022-11-27T08:17:54.819Z,20.95
2022-11-27T08:20:21.614Z,20.17
2022-11-27T08:22:48.374Z,22.75
2022-11-27T08:25:15.637Z,20.65
2022-11-27T08:27:42.354Z,21.05
2022-11-27T08:30:09.836Z,15.95
2022-11-27T08:32:39.950Z,23.15
2022-11-27T08:35:07.475Z,16.65
2022-11-27T08:37:34.739Z,24.10
2022-11-27T08:40:01.702Z,14.52
2022-11-27T08:42:28.577Z,12.43
2022-11-27T08:44:55.365Z,19.73
2022-11-27T08:47:22.136Z,20.73
2022-11-27T08:49:48.892Z,19.70
2022-11-27T08:52:15.613Z,18.15
2022-11-27T08:54:43.179Z,18.67
2022-11-27T08:57:10.195Z,25.30
2022-11-27T08:59:36.897Z,23.33
2022-11-27T09:02:03.666Z,21.27
2022-11-27T09:04:30.465Z,18.42
2022-11-27T09:07:06.615Z,16.55
2022-11-27T09:09:33.297Z,17.42
2022-11-27T09:12:00.039Z,17.95
2022-11-27T09:14:26.807Z,15.15
2022-11-27T09:16:53.940Z,15.95
2022-11-27T09:19:21.643Z,15.88
2022-11-27T09:21:50.747Z,15.32
2022-11-27T09:24:17.500Z,14.95
2022-11-27T09:26:44.751Z,12.52
2022-11-27T09:29:11.498Z,10.77
2022-11-27T09:31:38.472Z,14.50
2022-11-27T09:34:05.724Z,9.80
2022-11-27T09:36:32.512Z,12.18
2022-11-27T09:38:59.516Z,12.85
2022-11-27T09:41:42.047Z,9.57
2022-11-27T09:44:50.189Z,9.73
2022-11-27T09:47:30.802Z,9.13
2022-11-27T09:50:13.505Z,14.25
2022-11-27T09:52:56.567Z,8.98
2022-11-27T09:55:30.007Z,11.73
2022-11-27T09:58:26.315Z,8.60
2022-11-27T10:00:53.048Z,10.52
2022-11-27T10:03:27.447Z,10.27
2022-11-27T10:06:03.268Z,8.65
2022-11-27T10:08:55.428Z,10.32
2022-11-27T10:11:25.215Z,14.82
2022-11-27T10:14:10.478Z,9.90
2022-11-27T10:17:07.773Z,16.00
2022-11-27T10:19:57.883Z,12.52
2022-11-27T10:22:50.385Z,10.30
2022-11-27T10:25:24.211Z,8.02
2022-11-27T10:28:13.661Z,12.85
2022-11-27T10:30:55.829Z,10.20
2022-11-27T10:33:28.029Z,12.75
2022-11-27T10:35:54.908Z,9.82
2022-11-27T10:38:26.510Z,7.93
2022-11-27T10:41:18.690Z,8.50
2022-11-27T10:44:01.768Z,9.63
2022-11-27T10:46:32.090Z,8.50
2022-11-27T10:48:58.849Z,10.40
2022-11-27T10:51:36.961Z,8.85
2022-11-27T10:54:07.151Z,10.75
2022-11-27T10:56:53.970Z,13.15
2022-11-27T10:59:34.852Z,9.40
2022-11-27T11:02:03.272Z,12.43
2022-11-27T11:04:37.870Z,7.68
2022-11-27T11:07:23.259Z,12.18
2022-11-27T11:09:50.140Z,11.65
2022-11-27T11:12:20.940Z,9.38
2022-11-27T11:14:59.426Z,11.52
2022-11-27T11:17:37.184Z,11.38
2022-11-27T11:20:20.763Z,15.23
2022-11-27T11:22:48.542Z,9.00
2022-11-27T11:25:20.239Z,12.40
2022-11-27T11:27:49.775Z,12.70
2022-11-27T11:30:29.930Z,8.75
2022-11-27T11:33:02.213Z,7.72
2022-11-27T11:35:34.560Z,10.63
2022-11-27T11:38:06.710Z,13.23
2022-11-27T11:40:35.697Z,8.10
2022-11-27T11:43:06.546Z,5.78
2022-11-27T11:45:34.708Z,7.20
2022-11-27T11:48:17.782Z,9.27
2022-11-27T11:51:00.390Z,9.30
2022-11-27T11:53:37.749Z,12.45
2022-11-27T11:56:20.026Z,10.38
2022-11-27T12:01:45.923Z,6.68
2022-11-27T12:04:30.912Z,9.88
2022-11-27T12:07:09.319Z,9.50
2022-11-27T12:09:44.858Z,5.90
2022-11-27T12:12:56.404Z,8.10
2022-11-27T12:15:29.662Z,8.75
2022-11-27T12:18:11.999Z,7.10
2022-11-27T12:20:53.724Z,10.95
2022-11-27T12:23:41.755Z,9.55
2022-11-27T12:26:18.158Z,10.07
2022-11-27T12:28:58.972Z,7.32
2022-11-27T12:32:14.218Z,7.73
2022-11-27T12:34:47.992Z,8.55
2022-11-27T12:37:42.299Z,7.70
2022-11-27T12:40:32.440Z,7.93
2022-11-27T12:43:24.443Z,6.20
2022-11-27T12:46:03.794Z,7.13
2022-11-27T12:48:53.429Z,9.05
2022-11-27T12:51:59.044Z,8.23
2022-11-27T12:54:36.524Z,6.50
2022-11-27T12:57:10.758Z,10.70
2022-11-27T12:59:47.515Z,11.52
2022-11-27T13:02:38.129Z,9.27
2022-11-27T13:05:23.163Z,9.57
2022-11-27T13:08:05.103Z,7.85
2022-11-27T13:10:38.222Z,10.05
2022-11-27T13:13:12.975Z,8.63
2022-11-27T13:15:50.276Z,8.00
2022-11-27T13:18:36.056Z,11.07
2022-11-27T13:21:07.891Z,6.55
2022-11-27T13:23:35.193Z,11.18
2022-11-27T13:26:06.089Z,11.00
2022-11-27T13:28:41.933Z,11.73
2022-11-27T13:31:18.508Z,8.75
2022-11-27T13:33:46.591Z,7.82
2022-11-27T13:36:26.250Z,8.45
2022-11-27T13:38:57.785Z,5.47
2022-11-27T13:41:39.904Z,5.70
2022-11-27T13:44:24.205Z,9.50
2022-11-27T13:46:54.843Z,7.60
2022-11-27T13:49:27.426Z,8.18
2022-11-27T13:52:05.174Z,9.43
2022-11-27T13:54:31.972Z,8.20
2022-11-27T13:57:13.331Z,8.57
2022-11-27T13:59:40.129Z,8.85
2022-11-27T14:02:08.641Z,7.82
2022-11-27T14:04:35.965Z,13.02
2022-11-27T14:07:09.638Z,6.00
2022-11-27T14:09:58.281Z,8.75
2022-11-27T14:12:32.236Z,7.15
2022-11-27T14:15:21.467Z,8.38
2022-11-27T14:17:52.377Z,6.95
2022-11-27T14:20:30.106Z,6.13
2022-11-27T14:23:14.264Z,7.38
2022-11-27T14:25:41.595Z,8.15
2022-11-27T14:28:21.839Z,5.90
2022-11-27T14:31:01.489Z,9.23
2022-11-27T14:33:31.203Z,9.88
2022-11-27T14:36:00.293Z,14.70
2022-11-27T14:38:28.893Z,10.98
2022-11-27T14:41:17.438Z,8.48
2022-11-27T14:43:44.188Z,7.50
2022-11-27T14:46:20.587Z,8.25
2022-11-27T14:48:58.026Z,7.75
2022-11-27T14:51:27.108Z,5.75
2022-11-27T14:54:05.693Z,10.60
2022-11-27T14:56:35.175Z,7.70
2022-11-27T14:59:04.127Z,12.65
2022-11-27T15:01:32.931Z,5.53
2022-11-27T15:04:02.410Z,6.22
2022-11-27T15:06:35.793Z,6.70
2022-11-27T15:09:30.208Z,3.58
2022-11-27T15:12:09.104Z,9.68
2022-11-27T15:14:36.082Z,4.68
2022-11-27T15:17:02.942Z,9.00
2022-11-27T15:19:36.411Z,4.55
2022-11-27T15:22:03.907Z,6.20
2022-11-27T15:24:36.126Z,6.47
2022-11-27T15:27:14.946Z,11.18
2022-11-27T15:30:01.189Z,9.85
2022-11-27T15:32:34.647Z,14.32
2022-11-27T15:35:12.072Z,9.48
2022-11-27T15:37:39.198Z,3.75
2022-11-27T15:40:24.855Z,7.70
2022-11-27T15:42:51.535Z,6.95
2022-11-27T15:45:18.637Z,4.93
2022-11-27T15:47:45.454Z,3.97
2022-11-27T15:50:16.975Z,4.65
2022-11-27T15:52:43.946Z,3.55
2022-11-27T15:55:15.815Z,4.30
2022-11-27T15:57:42.962Z,4.60
2022-11-27T16:00:10.760Z,6.40
2022-11-27T16:02:40.815Z,4.97
2022-11-27T16:05:08.732Z,3.72
2022-11-27T16:07:35.592Z,5.82
2022-11-27T16:10:02.328Z,2.80
2022-11-27T16:12:29.038Z,4.97
2022-11-27T16:14:55.823Z,3.65
2022-11-27T16:17:22.572Z,4.30
2022-11-27T16:19:49.344Z,4.93
2022-11-27T16:22:16.137Z,4.53
2022-11-27T16:24:43.221Z,3.90
2022-11-27T16:27:10.294Z,8.95
2022-11-27T16:29:37.019Z,11.82
2022-11-27T16:32:03.996Z,3.70
2022-11-27T16:34:30.934Z,6.65
2022-11-27T16:36:57.750Z,5.53
2022-11-27T16:39:25.355Z,3.08
2022-11-27T16:41:52.400Z,8.15
2022-11-27T16:44:19.960Z,4.00
2022-11-27T16:46:46.767Z,2.67
2022-11-27T16:49:13.627Z,3.55
2022-11-27T16:51:44.782Z,3.17
2022-11-27T16:54:18.310Z,5.20
2022-11-27T16:56:46.318Z,7.57
2022-11-27T16:59:14.577Z,6.05
2022-11-27T17:01:42.574Z,7.82
2022-11-27T17:04:16.315Z,5.38
2022-11-27T17:06:43.032Z,3.13
2022-11-27T17:09:09.776Z,6.07
2022-11-27T17:11:40.841Z,3.90
2022-11-27T17:14:08.982Z,4.90
2022-11-27T17:16:37.077Z,3.47
2022-11-27T17:19:04.440Z,3.05
2022-11-27T17:21:33.936Z,4.47
2022-11-27T17:24:03.942Z,4.13
2022-11-27T17:26:38.537Z,4.15
2022-11-27T17:29:05.258Z,4.32
2022-11-27T17:31:33.662Z,3.38
2022-11-27T17:34:01.044Z,5.40
2022-11-27T17:36:36.516Z,11.02
2022-11-27T17:39:05.812Z,5.63
2022-11-27T17:41:33.015Z,4.57
2022-11-27T17:44:00.355Z,5.88
2022-11-27T17:46:28.800Z,4.70
2022-11-27T17:48:59.141Z,4.60
2022-11-27T17:51:28.065Z,6.68
2022-11-27T17:53:54.891Z,5.05
2022-11-27T17:56:23.452Z,13.55
2022-11-27T17:58:50.455Z,5.22
2022-11-27T18:01:24.606Z,10.23
2022-11-27T18:03:54.484Z,4.18
2022-11-27T18:06:22.797Z,2.70
2022-11-27T18:08:49.906Z,3.20
2022-11-27T18:11:25.378Z,3.97
2022-11-27T18:13:52.614Z,3.63
2022-11-27T18:16:23.624Z,3.90
2022-11-27T18:18:51.093Z,2.92
2022-11-27T18:21:20.248Z,4.68
2022-11-27T18:24:21.986Z,4.93
2022-11-27T18:29:22.420Z,4.15
2022-11-27T18:31:50.781Z,3.85
2022-11-27T18:34:17.923Z,2.78
2022-11-27T18:36:45.886Z,4.43
2022-11-27T18:39:13.288Z,3.67
2022-11-27T18:41:40.794Z,4.95
2022-11-27T18:44:08.745Z,7.53
2022-11-27T18:46:35.538Z,5.30
2022-11-27T18:49:02.546Z,3.30
2022-11-27T18:51:29.286Z,6.28
2022-11-27T18:53:57.956Z,3.08
2022-11-27T18:56:29.542Z,5.93
2022-11-27T18:59:05.581Z,3.67
2022-11-27T19:01:40.968Z,2.50
2022-11-27T19:04:10.880Z,5.45
2022-11-27T19:06:38.580Z,5.30
2022-11-27T19:09:06.508Z,3.97
2022-11-27T19:11:34.805Z,4.20
2022-11-27T19:14:02.555Z,5.20
2022-11-27T19:16:32.916Z,4.70
2022-11-27T19:19:02.490Z,7.20
2022-11-27T19:21:31.129Z,5.15
2022-11-27T19:23:59.962Z,3.78
2022-11-27T19:26:33.670Z,4.28
2022-11-27T19:29:03.581Z,4.43
2022-11-27T19:31:32.891Z,4.68
2022-11-27T19:34:02.083Z,4.70
2022-11-27T19:36:30.923Z,5.53
2022-11-27T19:39:07.374Z,4.40
2022-11-27T19:41:34.862Z,4.68
2022-11-27T19:44:03.510Z,4.28
2022-11-27T19:46:32.624Z,10.48
2022-11-27T19:49:02.218Z,4.85
2022-11-27T19:51:33.001Z,3.42
2022-11-27T19:54:05.681Z,5.22
2022-11-27T19:56:37.362Z,3.50
2022-11-27T19:59:04.396Z,3.58
2022-11-27T20:01:31.488Z,4.20
2022-11-27T20:03:58.895Z,6.25
2022-11-27T20:06:27.729Z,6.97
2022-11-27T20:09:00.294Z,4.03
2022-11-27T20:11:34.259Z,3.25
2022-11-27T20:14:02.463Z,4.43
2022-11-27T20:16:33.696Z,3.92
2022-11-27T20:19:02.581Z,7.20
2022-11-27T20:21:29.573Z,3.20
2022-11-27T20:23:57.552Z,4.13
2022-11-27T20:26:27.295Z,3.25
2022-11-27T20:28:54.520Z,4.50
2022-11-27T20:31:30.005Z,3.00
2022-11-27T20:34:03.506Z,3.55
2022-11-27T20:36:33.976Z,6.28
2022-11-27T20:39:01.808Z,3.20
2022-11-27T20:41:29.541Z,5.20
2022-11-27T20:43:59.351Z,3.58
2022-11-27T20:46:26.932Z,3.33
2022-11-27T20:48:54.580Z,5.38
2022-11-27T20:51:27.411Z,6.60
2022-11-27T20:53:56.554Z,5.00
2022-11-27T20:56:24.261Z,5.50
2022-11-27T20:58:51.134Z,2.85
2022-11-27T21:01:19.693Z,5.63
2022-11-27T21:03:48.751Z,4.53
2022-11-27T21:06:16.626Z,5.18
2022-11-27T21:08:43.397Z,7.00
2022-11-27T21:11:24.841Z,5.57
2022-11-27T21:14:01.139Z,4.97
2022-11-27T21:16:32.594Z,5.65
2022-11-27T21:19:02.999Z,4.57
2022-11-27T21:21:30.787Z,3.88
2022-11-27T21:23:59.383Z,4.35
2022-11-27T21:26:26.950Z,7.78
2022-11-27T21:28:53.945Z,5.78
2022-11-27T21:31:27.434Z,5.45
2022-11-27T21:33:59.998Z,5.43
2022-11-27T21:36:30.783Z,6.18
2022-11-27T21:38:58.700Z,4.65
2022-11-27T21:41:26.564Z,6.07
2022-11-27T21:43:58.862Z,5.00
2022-11-27T21:46:28.685Z,6.82
2022-11-27T21:49:00.070Z,6.25
2022-11-27T21:51:29.638Z,7.27
2022-11-27T21:53:58.959Z,5.60
2022-11-27T21:56:28.494Z,6.75
2022-11-27T21:58:55.646Z,9.45
2022-11-27T22:01:24.096Z,11.60
2022-11-27T22:03:54.025Z,17.85
2022-11-27T22:06:21.963Z,15.13
2022-11-27T22:08:50.307Z,13.48
2022-11-27T22:11:21.259Z,9.88
2022-11-27T22:16:17.354Z,13.07
2022-11-27T22:18:45.326Z,7.45
2022-11-27T22:21:13.645Z,5.95
2022-11-27T22:23:41.941Z,5.22
2022-11-27T22:26:11.587Z,5.40
2022-11-27T22:28:38.691Z,7.60
2022-11-27T22:31:16.872Z,4.80
2022-11-27T22:33:44.676Z,4.28
2022-11-27T22:36:23.613Z,4.25
2022-11-27T22:38:53.189Z,5.22
2022-11-27T22:41:22.400Z,5.63
2022-11-27T22:43:49.831Z,6.00
2022-11-27T22:46:28.967Z,6.72
2022-11-27T22:49:00.272Z,6.43
2022-11-27T22:51:29.899Z,7.78
2022-11-27T22:53:57.624Z,8.30
2022-11-27T22:56:24.708Z,5.80
2022-11-27T22:59:06.089Z,5.30
2022-11-27T23:01:40.848Z,4.53
2022-11-27T23:04:07.749Z,7.93
2022-11-27T23:06:34.567Z,3.85
2022-11-27T23:09:01.388Z,5.53
2022-11-27T23:11:28.709Z,5.00
2022-11-27T23:13:57.605Z,4.97
2022-11-27T23:16:27.385Z,8.05
2022-11-27T23:18:54.218Z,6.88
2022-11-27T23:21:22.935Z,7.57
2022-11-27T23:23:50.095Z,3.97
2022-11-27T23:26:20.499Z,5.07
2022-11-27T23:28:49.153Z,4.65
2022-11-27T23:31:30.033Z,4.45
2022-11-27T23:33:58.177Z,4.10
2022-11-27T23:36:25.208Z,5.53
2022-11-27T23:38:51.923Z,6.53
2022-11-27T23:41:24.618Z,8.57
2022-11-27T23:43:52.573Z,4.82
2022-11-27T23:46:22.131Z,4.32
2022-11-27T23:48:49.300Z,4.40
2022-11-27T23:51:18.649Z,6.45
2022-11-27T23:53:46.511Z,6.85
2022-11-27T23:56:25.376Z,5.32
2022-11-27T23:58:54.447Z,3.83
